createdAt,value
2023-10-10T00:01:18.617Z,3.47
2023-10-10T00:03:46.600Z,3.70
2023-10-10T00:06:15.238Z,3.50
2023-10-10T00:08:42.605Z,3.25
2023-10-10T00:11:20.282Z,3.88
2023-10-10T00:13:47.977Z,3.75
2023-10-10T00:16:24.808Z,3.88
2023-10-10T00:18:51.575Z,4.00
2023-10-10T00:21:24.393Z,3.72
2023-10-10T00:23:51.681Z,3.97
2023-10-10T00:26:22.570Z,3.72
2023-10-10T00:28:56.990Z,3.88
2023-10-10T00:31:31.038Z,3.60
2023-10-10T00:33:58.226Z,3.80
2023-10-10T00:36:33.142Z,3.72
2023-10-10T00:39:19.973Z,4.10
2023-10-10T00:41:52.692Z,3.80
2023-10-10T00:44:20.458Z,3.93
2023-10-10T00:46:52.751Z,4.20
2023-10-10T00:49:24.750Z,3.95
2023-10-10T00:52:01.041Z,3.90
2023-10-10T00:54:28.114Z,4.07
2023-10-10T00:56:56.073Z,3.73
2023-10-10T00:59:29.590Z,3.47
2023-10-10T01:01:56.541Z,3.72
2023-10-10T01:04:36.635Z,3.65
2023-10-10T01:07:08.752Z,3.75
2023-10-10T01:09:40.671Z,3.03
2023-10-10T01:12:07.465Z,3.40
2023-10-10T01:14:34.218Z,3.75
2023-10-10T01:17:01.132Z,3.92
2023-10-10T01:19:31.193Z,3.35
2023-10-10T01:21:59.298Z,3.60
2023-10-10T01:24:26.794Z,3.13
2023-10-10T01:26:54.135Z,3.45
2023-10-10T01:29:27.057Z,3.25
2023-10-10T01:31:54.514Z,3.50
2023-10-10T01:34:40.912Z,3.33
2023-10-10T01:37:22.126Z,3.80
2023-10-10T01:39:55.591Z,3.85
2023-10-10T01:42:32.619Z,4.30
2023-10-10T01:45:04.064Z,3.78
2023-10-10T01:47:35.996Z,3.63
2023-10-10T01:50:09.266Z,3.60
2023-10-10T01:52:48.051Z,3.75
2023-10-10T01:55:18.132Z,3.60
2023-10-10T01:57:45.057Z,3.80
2023-10-10T02:00:28.238Z,3.73
2023-10-10T02:02:57.237Z,3.75
2023-10-10T02:05:54.600Z,3.63
2023-10-10T02:08:23.638Z,3.60
2023-10-10T02:10:51.459Z,3.20
2023-10-10T02:13:19.257Z,3.37
2023-10-10T02:15:46.026Z,2.90
2023-10-10T02:18:23.804Z,2.97
2023-10-10T02:20:50.594Z,2.97
2023-10-10T02:23:26.215Z,2.97
2023-10-10T02:25:54.774Z,2.37
2023-10-10T02:28:22.217Z,2.60
2023-10-10T02:30:53.414Z,3.17
2023-10-10T02:33:20.442Z,2.85
2023-10-10T02:35:55.178Z,3.08
2023-10-10T02:38:40.901Z,2.60
2023-10-10T02:41:28.083Z,2.47
2023-10-10T02:44:02.388Z,2.75
2023-10-10T02:46:37.557Z,2.30
2023-10-10T02:49:23.308Z,2.85
2023-10-10T02:51:51.023Z,2.70
2023-10-10T02:54:32.734Z,2.75
2023-10-10T02:57:21.751Z,2.67
2023-10-10T02:59:52.195Z,2.88
2023-10-10T03:02:20.731Z,2.60
2023-10-10T03:05:04.072Z,2.27
2023-10-10T03:07:31.404Z,3.03
2023-10-10T03:10:08.877Z,3.20
2023-10-10T03:12:39.215Z,2.90
2023-10-10T03:15:15.783Z,3.05
2023-10-10T03:17:51.072Z,2.77
2023-10-10T03:20:32.306Z,2.70
2023-10-10T03:23:08.857Z,2.35
2023-10-10T03:25:53.772Z,2.83
2023-10-10T03:28:33.669Z,2.08
2023-10-10T03:31:12.303Z,2.30
2023-10-10T03:33:46.517Z,2.35
2023-10-10T03:36:20.172Z,1.90
2023-10-10T03:38:51.286Z,2.25
2023-10-10T03:41:24.670Z,2.50
2023-10-10T03:44:11.221Z,2.67
2023-10-10T03:46:50.244Z,2.78
2023-10-10T03:49:36.549Z,3.05
2023-10-10T03:52:21.805Z,2.92
2023-10-10T03:55:07.259Z,3.33
2023-10-10T03:57:52.536Z,2.83
2023-10-10T04:00:37.876Z,2.85
2023-10-10T04:03:23.390Z,2.70
2023-10-10T04:06:08.832Z,2.90
2023-10-10T04:08:54.262Z,2.40
2023-10-10T04:11:39.587Z,2.80
2023-10-10T04:14:24.946Z,2.78
2023-10-10T04:17:09.877Z,2.63
2023-10-10T04:19:55.360Z,2.75
2023-10-10T04:22:40.796Z,2.70
2023-10-10T04:25:25.984Z,2.80
2023-10-10T04:28:11.429Z,2.67
2023-10-10T04:30:56.629Z,2.13
2023-10-10T04:33:43.592Z,2.60
2023-10-10T04:36:28.666Z,2.72
2023-10-10T04:39:13.555Z,2.23
2023-10-10T04:41:58.896Z,2.40
2023-10-10T04:44:43.914Z,2.03
2023-10-10T04:47:29.369Z,2.08
2023-10-10T04:50:14.557Z,2.80
2023-10-10T04:52:59.951Z,2.20
2023-10-10T04:55:45.073Z,2.40
2023-10-10T04:58:30.281Z,2.20
2023-10-10T05:01:15.576Z,2.15
2023-10-10T05:04:03.410Z,2.30
2023-10-10T05:06:48.975Z,2.80
2023-10-10T05:09:34.377Z,2.25
2023-10-10T05:12:19.398Z,2.35
2023-10-10T05:15:04.825Z,2.15
2023-10-10T05:17:49.771Z,2.25
2023-10-10T05:20:35.164Z,2.07
2023-10-10T05:23:20.565Z,2.40
2023-10-10T05:25:52.180Z,2.40
2023-10-10T05:28:20.991Z,1.98
2023-10-10T05:30:48.076Z,2.35
2023-10-10T05:33:15.173Z,2.77
2023-10-10T05:35:49.873Z,2.40
2023-10-10T05:38:21.248Z,2.28
2023-10-10T05:40:48.541Z,2.20
2023-10-10T05:43:18.922Z,2.17
2023-10-10T05:45:46.000Z,2.37
2023-10-10T05:48:13.476Z,2.10
2023-10-10T05:50:42.243Z,2.90
2023-10-10T05:53:09.307Z,2.80
2023-10-10T05:55:36.812Z,3.00
2023-10-10T05:58:03.717Z,3.07
2023-10-10T06:00:33.634Z,2.63
2023-10-10T06:03:01.196Z,2.83
2023-10-10T06:05:30.758Z,2.70
2023-10-10T06:07:59.903Z,3.03
2023-10-10T06:10:32.692Z,2.73
2023-10-10T06:12:59.923Z,2.85
2023-10-10T06:15:29.806Z,2.70
2023-10-10T06:17:58.902Z,3.30
2023-10-10T06:20:26.241Z,2.80
2023-10-10T06:22:56.620Z,3.23
2023-10-10T06:25:24.559Z,3.15
2023-10-10T06:27:57.407Z,3.80
2023-10-10T06:30:25.906Z,2.95
2023-10-10T06:32:53.140Z,2.92
2023-10-10T06:35:20.063Z,3.30
2023-10-10T06:37:52.893Z,3.08
2023-10-10T06:40:31.300Z,3.08
2023-10-10T06:43:00.921Z,3.47
2023-10-10T06:45:36.148Z,3.58
2023-10-10T06:48:02.968Z,3.57
2023-10-10T06:50:33.401Z,3.72
2023-10-10T06:53:01.838Z,3.88
2023-10-10T06:55:38.004Z,3.72
2023-10-10T06:58:06.674Z,3.63
2023-10-10T07:00:43.806Z,3.70
2023-10-10T07:03:11.345Z,3.65
2023-10-10T07:05:40.774Z,3.47
2023-10-10T07:08:26.401Z,4.03
2023-10-10T07:10:54.911Z,3.63
2023-10-10T07:13:22.232Z,4.03
2023-10-10T07:15:55.107Z,3.85
2023-10-10T07:18:25.073Z,4.65
2023-10-10T07:21:08.036Z,4.65
2023-10-10T07:23:39.279Z,3.67
2023-10-10T07:26:07.018Z,3.50
2023-10-10T07:28:54.767Z,4.28
2023-10-10T07:31:23.401Z,3.92
2023-10-10T07:34:05.456Z,3.58
2023-10-10T07:36:32.670Z,3.88
2023-10-10T07:39:25.342Z,3.73
2023-10-10T07:41:53.889Z,3.53
2023-10-10T07:44:23.954Z,3.83
2023-10-10T07:47:09.804Z,3.63
2023-10-10T07:49:36.720Z,3.80
2023-10-10T07:52:04.269Z,4.17
2023-10-10T07:54:40.219Z,3.78
2023-10-10T07:57:12.837Z,4.20
2023-10-10T07:59:39.810Z,4.10
2023-10-10T08:02:21.150Z,3.63
2023-10-10T08:04:50.939Z,3.70
2023-10-10T08:07:21.185Z,4.05
2023-10-10T08:09:48.102Z,4.57
2023-10-10T08:12:15.149Z,4.22
2023-10-10T08:14:42.491Z,3.75
2023-10-10T08:17:22.544Z,4.30
2023-10-10T08:19:54.979Z,3.83
2023-10-10T08:22:26.776Z,3.58
2023-10-10T08:24:53.571Z,4.60
2023-10-10T08:27:23.759Z,4.35
2023-10-10T08:29:51.739Z,4.50
2023-10-10T08:32:18.837Z,4.03
2023-10-10T08:34:45.720Z,4.18
2023-10-10T08:37:12.527Z,4.20
2023-10-10T08:39:40.643Z,4.45
2023-10-10T08:42:12.214Z,4.60
2023-10-10T08:44:40.221Z,3.95
2023-10-10T08:47:07.889Z,5.07
2023-10-10T08:49:34.849Z,4.70
2023-10-10T08:52:04.273Z,4.45
2023-10-10T08:54:31.077Z,4.63
2023-10-10T08:57:01.478Z,3.90
2023-10-10T08:59:32.822Z,4.60
2023-10-10T09:02:06.635Z,4.38
2023-10-10T09:04:33.636Z,4.30
2023-10-10T09:07:01.712Z,4.60
2023-10-10T09:09:34.346Z,4.18
2023-10-10T09:12:04.336Z,5.10
2023-10-10T09:14:53.000Z,4.93
2023-10-10T09:17:30.252Z,4.20
2023-10-10T09:20:01.575Z,4.70
2023-10-10T09:22:44.296Z,4.55
2023-10-10T09:25:27.831Z,4.93
2023-10-10T09:28:01.638Z,5.45
2023-10-10T09:30:36.014Z,5.45
2023-10-10T09:33:30.152Z,4.90
2023-10-10T09:36:09.877Z,4.63
2023-10-10T09:38:38.164Z,5.53
2023-10-10T09:41:24.066Z,5.18
2023-10-10T09:44:16.434Z,5.30
2023-10-10T09:47:09.634Z,4.80
2023-10-10T09:49:53.473Z,5.45
2023-10-10T09:52:40.195Z,5.05
2023-10-10T09:55:14.440Z,5.18
2023-10-10T09:57:45.887Z,4.60
2023-10-10T10:00:27.403Z,5.50
2023-10-10T10:02:58.753Z,5.22
2023-10-10T10:05:29.884Z,5.32
2023-10-10T10:08:01.713Z,5.50
2023-10-10T10:10:53.537Z,4.47
2023-10-10T10:13:38.574Z,5.93
2023-10-10T10:16:21.159Z,5.68
2023-10-10T10:18:48.634Z,5.57
2023-10-10T10:21:20.380Z,5.20
2023-10-10T10:23:57.797Z,5.72
2023-10-10T10:26:33.769Z,5.07
2023-10-10T10:29:16.176Z,5.35
2023-10-10T10:31:58.407Z,4.90
2023-10-10T10:34:36.602Z,5.30
2023-10-10T10:37:03.716Z,4.95
2023-10-10T10:39:35.871Z,5.63
2023-10-10T10:42:16.936Z,5.07
2023-10-10T10:44:59.873Z,5.70
2023-10-10T10:47:56.080Z,5.07
2023-10-10T10:50:42.072Z,5.20
2023-10-10T10:53:21.725Z,5.00
2023-10-10T10:56:07.489Z,5.38
2023-10-10T10:58:49.017Z,5.13
2023-10-10T11:01:18.612Z,5.82
2023-10-10T11:03:45.514Z,5.22
2023-10-10T11:06:15.842Z,5.27
2023-10-10T11:11:25.076Z,5.50
2023-10-10T11:13:52.952Z,5.32
2023-10-10T11:16:20.792Z,5.22
2023-10-10T11:18:58.282Z,5.63
2023-10-10T11:21:28.993Z,5.22
2023-10-10T11:23:58.784Z,5.40
2023-10-10T11:26:28.627Z,6.00
2023-10-10T11:29:00.438Z,6.28
2023-10-10T11:31:30.653Z,5.03
2023-10-10T11:34:11.693Z,5.70
2023-10-10T11:36:41.123Z,5.28
2023-10-10T11:39:32.655Z,6.00
2023-10-10T11:42:01.516Z,6.80
2023-10-10T11:44:28.584Z,6.30
2023-10-10T11:47:04.149Z,5.55
2023-10-10T11:49:32.700Z,6.53
2023-10-10T11:52:00.542Z,5.88
2023-10-10T11:54:29.032Z,5.95
2023-10-10T11:56:55.870Z,6.47
2023-10-10T11:59:23.612Z,7.05
2023-10-10T12:01:55.588Z,6.32
2023-10-10T12:04:32.100Z,5.90
2023-10-10T12:07:05.357Z,6.05
2023-10-10T12:09:33.180Z,6.27
2023-10-10T12:12:00.508Z,6.30
2023-10-10T12:14:30.471Z,5.80
2023-10-10T12:17:00.747Z,6.70
2023-10-10T12:19:29.353Z,6.10
2023-10-10T12:21:56.939Z,6.27
2023-10-10T12:24:24.635Z,6.32
2023-10-10T12:26:55.458Z,5.90
2023-10-10T12:29:25.683Z,6.63
2023-10-10T12:31:56.956Z,5.72
2023-10-10T12:34:24.754Z,6.27
2023-10-10T12:37:00.919Z,6.60
2023-10-10T12:39:28.961Z,7.32
2023-10-10T12:41:58.314Z,6.65
2023-10-10T12:44:25.239Z,7.70
2023-10-10T12:46:56.045Z,7.13
2023-10-10T12:49:29.841Z,6.93
2023-10-10T12:51:57.878Z,6.35
2023-10-10T12:54:28.741Z,6.68
2023-10-10T12:57:04.102Z,6.28
2023-10-10T12:59:34.704Z,6.97
2023-10-10T13:02:04.694Z,6.20
2023-10-10T13:04:33.650Z,6.47
2023-10-10T13:07:06.207Z,7.10
2023-10-10T13:09:33.246Z,7.78
2023-10-10T13:12:04.005Z,7.20
2023-10-10T13:14:34.021Z,6.90
2023-10-10T13:17:21.715Z,6.65
2023-10-10T13:19:50.123Z,6.50
2023-10-10T13:22:22.191Z,6.47
2023-10-10T13:24:52.729Z,6.47
2023-10-10T13:27:22.072Z,6.32
2023-10-10T13:29:49.034Z,6.75
2023-10-10T13:32:15.833Z,6.57
2023-10-10T13:34:42.552Z,6.75
2023-10-10T13:37:10.235Z,6.30
2023-10-10T13:39:56.801Z,6.57
2023-10-10T13:42:23.688Z,6.80
2023-10-10T13:44:50.604Z,6.70
2023-10-10T13:47:18.340Z,6.70
2023-10-10T13:49:59.643Z,6.40
2023-10-10T13:52:26.344Z,5.38
2023-10-10T13:54:53.394Z,6.57
2023-10-10T13:57:20.154Z,6.47
2023-10-10T13:59:50.418Z,7.00
2023-10-10T14:02:18.223Z,6.90
2023-10-10T14:04:49.873Z,7.00
2023-10-10T14:07:16.984Z,6.47
2023-10-10T14:10:02.267Z,5.90
2023-10-10T14:12:33.654Z,5.63
2023-10-10T14:15:02.686Z,6.33
2023-10-10T14:17:31.030Z,6.15
2023-10-10T14:19:59.731Z,5.70
2023-10-10T14:22:28.155Z,5.95
2023-10-10T14:25:01.625Z,6.45
2023-10-10T14:27:28.984Z,6.63
2023-10-10T14:29:58.762Z,6.60
2023-10-10T14:32:38.900Z,6.82
2023-10-10T14:35:06.802Z,6.95
2023-10-10T14:37:45.476Z,6.95
2023-10-10T14:40:20.206Z,6.27
2023-10-10T14:42:46.944Z,6.35
2023-10-10T14:45:14.227Z,5.65
2023-10-10T14:47:45.029Z,6.07
2023-10-10T14:50:14.213Z,6.20
2023-10-10T14:52:48.370Z,6.10
2023-10-10T14:55:28.983Z,6.07
2023-10-10T14:57:56.637Z,6.30
2023-10-10T15:00:24.936Z,6.68
2023-10-10T15:02:55.051Z,6.13
2023-10-10T15:05:24.818Z,5.70
2023-10-10T15:07:53.868Z,6.32
2023-10-10T15:10:24.767Z,6.70
2023-10-10T15:12:51.538Z,7.47
2023-10-10T15:15:18.311Z,6.07
2023-10-10T15:17:45.053Z,6.53
2023-10-10T15:20:15.164Z,6.13
2023-10-10T15:22:43.186Z,7.20
2023-10-10T15:25:12.034Z,7.32
2023-10-10T15:27:42.131Z,6.68
2023-10-10T15:30:10.017Z,6.97
2023-10-10T15:32:47.886Z,5.97
2023-10-10T15:35:16.665Z,6.72
2023-10-10T15:37:43.741Z,6.53
2023-10-10T15:40:14.615Z,6.07
2023-10-10T15:42:41.564Z,7.67
2023-10-10T15:45:08.703Z,6.75
2023-10-10T15:47:35.582Z,6.25
2023-10-10T15:50:02.414Z,7.05
2023-10-10T15:52:29.471Z,6.32
2023-10-10T15:54:56.118Z,6.40
2023-10-10T15:57:24.061Z,7.00
2023-10-10T15:59:50.774Z,7.20
2023-10-10T16:02:17.539Z,6.95
2023-10-10T16:04:46.132Z,6.45
2023-10-10T16:07:17.315Z,9.07
2023-10-10T16:09:44.353Z,6.57
2023-10-10T16:12:13.840Z,6.80
2023-10-10T16:14:41.137Z,6.97
2023-10-10T16:17:07.939Z,6.55
2023-10-10T16:19:37.320Z,6.83
2023-10-10T16:22:06.403Z,6.60
2023-10-10T16:24:33.695Z,6.97
2023-10-10T16:27:01.149Z,7.30
2023-10-10T16:29:34.685Z,7.25
2023-10-10T16:32:03.600Z,8.40
2023-10-10T16:34:33.469Z,8.45
2023-10-10T16:37:00.520Z,7.85
2023-10-10T16:39:27.279Z,7.55
2023-10-10T16:41:58.546Z,7.55
2023-10-10T16:44:26.203Z,8.23
2023-10-10T16:46:54.774Z,7.47
2023-10-10T16:49:24.063Z,8.23
2023-10-10T16:51:50.861Z,9.05
2023-10-10T16:54:20.005Z,8.77
2023-10-10T16:56:47.349Z,9.30
2023-10-10T16:59:16.025Z,8.65
2023-10-10T17:01:44.001Z,9.25
2023-10-10T17:04:11.569Z,8.23
2023-10-10T17:06:38.978Z,7.63
2023-10-10T17:09:06.254Z,7.50
2023-10-10T17:11:33.844Z,8.07
2023-10-10T17:14:04.622Z,8.88
2023-10-10T17:16:34.197Z,8.02
2023-10-10T17:21:32.827Z,10.43
2023-10-10T17:24:02.847Z,9.27
2023-10-10T17:26:31.569Z,9.02
2023-10-10T17:29:02.016Z,9.23
2023-10-10T17:31:29.741Z,7.80
2023-10-10T17:33:57.764Z,7.87
2023-10-10T17:36:27.623Z,6.90
2023-10-10T17:38:56.097Z,7.85
2023-10-10T17:41:25.201Z,7.40
2023-10-10T17:43:54.035Z,7.05
2023-10-10T17:46:22.888Z,7.87
2023-10-10T17:48:58.764Z,12.05
2023-10-10T17:51:29.249Z,18.02
2023-10-10T17:53:56.209Z,16.27
2023-10-10T17:56:25.765Z,12.30
2023-10-10T17:58:52.493Z,8.53
2023-10-10T18:01:22.170Z,7.93
2023-10-10T18:03:54.281Z,7.63
2023-10-10T18:06:22.241Z,6.85
2023-10-10T18:08:53.368Z,6.97
2023-10-10T18:11:20.150Z,7.03
2023-10-10T18:13:47.705Z,6.97
2023-10-10T18:16:15.103Z,6.90
2023-10-10T18:18:43.562Z,7.82
2023-10-10T18:21:13.869Z,7.72
2023-10-10T18:23:42.719Z,7.47
2023-10-10T18:26:21.519Z,6.93
2023-10-10T18:28:50.713Z,6.90
2023-10-10T18:31:22.535Z,7.47
2023-10-10T18:33:49.451Z,6.63
2023-10-10T18:36:16.328Z,7.10
2023-10-10T18:38:43.426Z,6.82
2023-10-10T18:41:10.849Z,6.70
2023-10-10T18:43:37.613Z,6.82
2023-10-10T18:46:06.806Z,6.88
2023-10-10T18:48:38.358Z,6.63
2023-10-10T18:51:05.532Z,6.70
2023-10-10T18:53:32.375Z,8.23
2023-10-10T18:55:59.771Z,8.73
2023-10-10T18:58:27.421Z,8.25
2023-10-10T19:00:56.250Z,7.40
2023-10-10T19:03:23.631Z,7.75
2023-10-10T19:05:53.680Z,8.48
2023-10-10T19:08:21.287Z,8.40
2023-10-10T19:10:54.091Z,8.55
2023-10-10T19:13:20.922Z,7.90
2023-10-10T19:15:50.180Z,8.38
2023-10-10T19:18:17.088Z,8.32
2023-10-10T19:20:47.817Z,8.30
2023-10-10T19:23:15.989Z,8.18
2023-10-10T19:25:49.053Z,7.63
2023-10-10T19:28:17.915Z,7.32
2023-10-10T19:30:45.176Z,7.88
2023-10-10T19:33:16.453Z,6.82
2023-10-10T19:35:46.810Z,8.75
2023-10-10T19:38:13.690Z,8.30
2023-10-10T19:40:44.634Z,8.27
2023-10-10T19:43:12.430Z,8.90
2023-10-10T19:45:39.413Z,7.28
2023-10-10T19:48:09.661Z,8.48
2023-10-10T19:50:43.918Z,8.63
2023-10-10T19:53:11.405Z,9.23
2023-10-10T19:55:42.431Z,9.63
2023-10-10T19:58:12.927Z,8.73
2023-10-10T20:00:42.809Z,9.07
2023-10-10T20:03:09.720Z,9.23
2023-10-10T20:05:39.869Z,8.60
2023-10-10T20:08:07.514Z,9.27
2023-10-10T20:10:34.329Z,9.40
2023-10-10T20:13:01.185Z,9.57
2023-10-10T20:15:28.614Z,9.23
2023-10-10T20:17:59.214Z,10.02
2023-10-10T20:20:27.201Z,9.30
2023-10-10T20:22:54.505Z,9.88
2023-10-10T20:25:21.117Z,9.85
2023-10-10T20:27:48.003Z,9.10
2023-10-10T20:30:16.039Z,9.77
2023-10-10T20:32:43.058Z,9.05
2023-10-10T20:35:18.446Z,8.60
2023-10-10T20:37:45.951Z,9.85
2023-10-10T20:40:17.918Z,10.27
2023-10-10T20:42:47.880Z,9.82
2023-10-10T20:45:17.459Z,9.15
2023-10-10T20:47:44.645Z,9.15
2023-10-10T20:50:15.504Z,10.98
2023-10-10T20:52:42.275Z,9.57
2023-10-10T20:55:11.905Z,9.02
2023-10-10T20:57:39.572Z,10.07
2023-10-10T21:00:07.294Z,9.13
2023-10-10T21:02:35.371Z,10.00
2023-10-10T21:05:03.304Z,10.23
2023-10-10T21:07:30.891Z,9.13
2023-10-10T21:09:57.652Z,9.70
2023-10-10T21:12:24.317Z,10.07
2023-10-10T21:14:54.118Z,10.95
2023-10-10T21:17:20.794Z,9.57
2023-10-10T21:19:48.454Z,11.10
2023-10-10T21:22:15.073Z,10.07
2023-10-10T21:24:41.684Z,9.40
2023-10-10T21:27:08.450Z,9.60
2023-10-10T21:29:35.231Z,8.53
2023-10-10T21:32:02.712Z,8.30
2023-10-10T21:34:29.518Z,9.65
2023-10-10T21:36:56.195Z,8.57
2023-10-10T21:39:22.970Z,8.77
2023-10-10T21:41:52.254Z,7.27
2023-10-10T21:44:19.245Z,7.50
2023-10-10T21:46:45.983Z,7.22
2023-10-10T21:49:15.454Z,7.03
2023-10-10T21:51:43.584Z,6.88
2023-10-10T21:54:11.518Z,6.87
2023-10-10T21:56:38.415Z,7.03
2023-10-10T21:59:05.518Z,6.00
2023-10-10T22:01:34.208Z,6.47
2023-10-10T22:04:01.188Z,7.13
2023-10-10T22:06:29.057Z,7.13
2023-10-10T22:08:55.803Z,6.43
2023-10-10T22:11:24.503Z,6.63
2023-10-10T22:13:51.831Z,7.05
2023-10-10T22:16:19.813Z,6.68
2023-10-10T22:18:49.232Z,7.83
2023-10-10T22:21:16.194Z,8.60
2023-10-10T22:23:43.732Z,8.40
2023-10-10T22:26:10.686Z,8.23
2023-10-10T22:28:37.470Z,8.88
2023-10-10T22:31:05.819Z,8.63
2023-10-10T22:33:32.686Z,8.45
2023-10-10T22:36:01.912Z,8.68
2023-10-10T22:38:28.741Z,9.15
2023-10-10T22:40:55.444Z,7.75
2023-10-10T22:43:22.575Z,7.30
2023-10-10T22:45:50.050Z,8.88
2023-10-10T22:48:16.854Z,8.48
2023-10-10T22:50:43.644Z,7.55
2023-10-10T22:53:17.098Z,7.18
2023-10-10T22:55:44.352Z,6.80
2023-10-10T22:58:11.021Z,6.80
2023-10-10T23:00:38.320Z,7.53
2023-10-10T23:03:12.006Z,7.57
2023-10-10T23:05:44.043Z,6.95
2023-10-10T23:08:12.029Z,8.30
2023-10-10T23:10:40.569Z,8.00
2023-10-10T23:13:07.877Z,8.50
2023-10-10T23:15:38.480Z,7.53
2023-10-10T23:18:06.069Z,8.35
2023-10-10T23:20:34.750Z,7.93
2023-10-10T23:23:05.745Z,8.35
2023-10-10T23:25:32.999Z,8.52
2023-10-10T23:27:59.952Z,7.90
2023-10-10T23:30:30.006Z,7.55
2023-10-10T23:32:57.761Z,7.30
2023-10-10T23:35:25.944Z,7.13
2023-10-10T23:37:58.360Z,7.80
2023-10-10T23:40:41.291Z,7.28
2023-10-10T23:43:09.704Z,6.97
2023-10-10T23:45:36.795Z,6.80
2023-10-10T23:48:03.787Z,7.47
2023-10-10T23:50:39.744Z,7.00
2023-10-10T23:53:08.406Z,7.35
2023-10-10T23:55:38.123Z,6.95
2023-10-10T23:58:09.001Z,6.87
